Time;durP1;ratioP1;P1;durP2;ratioP2;P2;SDS_P1;SDS_P2;PMS_P1;PMS_P2;Temp;Humidity;BMP_temperature;BMP_pressure;BME280_temperature;BME280_humidity;BME280_pressure;Samples;Min_cycle;Max_cycle;Signal;HPM_P1;HPM_P2
2023/09/17 00:00:04;;;;;;;;;;;;;;;23.57;38.57;101557.22;5070351;28;19921;-93
2023/09/17 00:02:30;;;;;;;;;;;;;;;23.51;38.62;101559.22;5065682;28;19920;-93
2023/09/17 00:04:55;;;;;;;;;;;;;;;23.48;38.59;101556.31;5069365;28;19931;-92
2023/09/17 00:07:25;;;;;;;;;;;;;;;23.46;38.56;101558.56;5064848;28;19924;-93
2023/09/17 00:09:50;;;;;;;;;;;;;;;23.43;38.45;101560.00;5069047;28;19959;-93
2023/09/17 00:12:16;;;;;;;;;;;;;;;23.42;38.48;101565.78;5065477;28;19963;-93
2023/09/17 00:14:41;;;;;;;;;;;;;;;23.38;38.50;101564.81;5064106;28;19924;-93
2023/09/17 00:17:09;;;;;;;;;;;;;;;23.32;38.52;101566.06;5064376;28;19917;-93
2023/09/17 00:19:35;;;;;;;;;;;;;;;23.27;38.73;101560.72;5071936;28;19921;-92
2023/09/17 00:22:01;;;;;;;;;;;;;;;23.24;38.74;101558.63;5070090;28;19916;-93
2023/09/17 00:24:27;;;;;;;;;;;;;;;23.23;38.71;101565.22;5070092;28;19966;-93
2023/09/17 00:26:53;;;;;;;;;;;;;;;23.18;38.96;101556.03;5070087;28;19951;-93
2023/09/17 00:29:18;;;;;;;;;;;;;;;23.17;38.91;101567.28;5066113;28;19924;-93
2023/09/17 00:31:43;;;;;;;;;;;;;;;23.15;38.99;101551.16;5065235;28;19925;-93
2023/09/17 00:34:11;;;;;;;;;;;;;;;23.13;38.96;101558.88;5063648;28;19920;-93
2023/09/17 00:36:40;;;;;;;;;;;;;;;23.09;38.84;101557.91;5083233;28;19930;-93
2023/09/17 00:39:06;;;;;;;;;;;;;;;23.08;38.71;101560.94;5073957;28;20015;-93
2023/09/17 00:41:32;;;;;;;;;;;;;;;23.05;38.74;101565.09;5065606;28;20303;-93
2023/09/17 00:43:57;;;;;;;;;;;;;;;23.02;38.57;101563.00;5069936;28;19917;-91
2023/09/17 00:46:25;;;;;;;;;;;;;;;22.99;39.03;101555.44;5061462;28;19920;-93
2023/09/17 00:48:54;;;;;;;;;;;;;;;22.95;38.96;101557.16;5087151;28;19916;-94
2023/09/17 00:51:19;;;;;;;;;;;;;;;22.91;39.01;101556.97;5068733;28;19925;-93
2023/09/17 00:53:45;;;;;;;;;;;;;;;22.87;38.87;101552.47;5066067;28;20737;-93
2023/09/17 00:56:14;;;;;;;;;;;;;;;22.85;39.02;101557.44;5066741;28;19962;-93
2023/09/17 00:58:40;;;;;;;;;;;;;;;22.81;39.32;101550.94;5066600;28;19928;-93
2023/09/17 01:01:08;;;;;;;;;;;;;;;22.77;39.27;101549.94;5072451;28;19932;-94
2023/09/17 01:03:34;;;;;;;;;;;;;;;22.73;39.25;101546.22;5070250;28;19952;-93
2023/09/17 01:06:00;;;;;;;;;;;;;;;22.71;39.04;101543.00;5073485;28;20337;-94
2023/09/17 01:08:27;;;;;;;;;;;;;;;22.70;39.29;101544.09;5070154;28;19924;-93
2023/09/17 01:10:54;;;;;;;;;;;;;;;22.68;39.20;101549.06;5063707;28;19924;-94
2023/09/17 01:13:19;;;;;;;;;;;;;;;22.64;39.20;101537.16;5070205;28;20384;-93
2023/09/17 01:15:45;;;;;;;;;;;;;;;22.61;38.97;101546.75;5071762;28;19924;-93
2023/09/17 01:18:15;;;;;;;;;;;;;;;22.60;39.36;101545.94;5069286;28;19932;-93
2023/09/17 01:20:52;;;;;;;;;;;;;;;22.56;39.30;101542.22;5068632;28;19916;-93
2023/09/17 01:23:23;;;;;;;;;;;;;;;22.55;39.31;101543.34;5068071;28;19920;-93
2023/09/17 01:26:01;;;;;;;;;;;;;;;22.51;39.26;101541.56;5072531;28;19916;-93
2023/09/17 01:28:28;;;;;;;;;;;;;;;22.45;39.32;101538.16;5080857;28;19920;-93
2023/09/17 01:30:54;;;;;;;;;;;;;;;22.42;39.37;101544.19;5072039;28;19916;-93
2023/09/17 01:33:19;;;;;;;;;;;;;;;22.39;39.61;101542.09;5070548;28;19982;-93
2023/09/17 01:35:45;;;;;;;;;;;;;;;;;;5069198;28;19917;-93
2023/09/17 01:38:12;;;;;;;;;;;;;;;22.31;39.40;101538.19;5068891;28;19925;-93
2023/09/17 01:40:39;;;;;;;;;;;;;;;22.30;39.41;101533.84;5070100;28;19928;-92
2023/09/17 01:43:07;;;;;;;;;;;;;;;22.29;39.42;101539.59;5077688;28;19917;-93
2023/09/17 01:45:34;;;;;;;;;;;;;;;22.26;39.60;101540.19;5061189;28;19931;-93
2023/09/17 01:48:01;;;;;;;;;;;;;;;22.22;39.59;101534.53;5064820;28;20379;-93
2023/09/17 01:50:28;;;;;;;;;;;;;;;22.19;39.65;101534.38;5062262;28;19929;-93
2023/09/17 01:52:56;;;;;;;;;;;;;;;22.16;39.53;101541.25;5066061;28;20384;-93
2023/09/17 01:55:22;;;;;;;;;;;;;;;22.12;39.76;101537.53;5062244;28;19917;-93
2023/09/17 01:57:48;;;;;;;;;;;;;;;22.09;39.65;101534.59;5063723;28;19923;-93
2023/09/17 02:00:18;;;;;;;;;;;;;;;22.05;39.80;101533.56;5058501;28;19920;-93
2023/09/17 02:02:46;;;;;;;;;;;;;;;22.03;39.84;101528.41;5066860;28;20596;-93
2023/09/17 02:05:12;;;;;;;;;;;;;;;22.00;39.82;101527.09;5065555;28;19924;-93
2023/09/17 02:07:38;;;;;;;;;;;;;;;21.98;39.60;101534.78;5074786;28;19924;-93
2023/09/17 02:10:03;;;;;;;;;;;;;;;21.95;39.81;101526.41;5057603;28;19921;-93
2023/09/17 02:12:28;;;;;;;;;;;;;;;21.91;39.82;101528.13;5060540;28;20026;-93
2023/09/17 02:14:54;;;;;;;;;;;;;;;21.88;39.55;101524.06;5062072;28;20560;-93
2023/09/17 02:17:19;;;;;;;;;;;;;;;21.88;39.60;101528.72;5062336;28;19948;-93
2023/09/17 02:19:45;;;;;;;;;;;;;;;21.88;39.82;101523.25;5058172;28;19925;-92
2023/09/17 02:22:10;;;;;;;;;;;;;;;21.84;39.70;101527.72;5065936;28;19920;-93
2023/09/17 02:24:36;;;;;;;;;;;;;;;21.80;39.88;101532.19;5065738;28;19923;-92
2023/09/17 02:27:02;;;;;;;;;;;;;;;21.77;39.68;101525.41;5062187;28;19917;-93
2023/09/17 02:29:27;;;;;;;;;;;;;;;21.76;39.54;101529.25;5057764;28;19928;-93
2023/09/17 02:31:54;;;;;;;;;;;;;;;21.73;39.56;101527.13;5059906;28;20104;-93
2023/09/17 02:34:19;;;;;;;;;;;;;;;21.71;39.67;101535.59;5065645;28;19921;-94
2023/09/17 02:36:44;;;;;;;;;;;;;;;21.68;39.66;101536.22;5069110;28;19970;-94
2023/09/17 02:39:11;;;;;;;;;;;;;;;21.66;39.70;101537.63;5072368;28;19916;-93
2023/09/17 02:41:38;;;;;;;;;;;;;;;21.64;39.94;101537.94;5065215;28;19916;-93
2023/09/17 02:44:03;;;;;;;;;;;;;;;21.62;39.85;101534.72;5069653;28;19916;-93
2023/09/17 02:46:28;;;;;;;;;;;;;;;21.59;39.90;101534.50;5066673;28;19927;-93
2023/09/17 02:48:54;;;;;;;;;;;;;;;21.58;39.78;101535.63;5063288;28;20015;-93
2023/09/17 02:51:20;;;;;;;;;;;;;;;21.54;39.94;101531.88;5061442;28;19979;-93
2023/09/17 02:53:46;;;;;;;;;;;;;;;21.49;39.92;101532.78;5063982;28;19928;-93
2023/09/17 02:56:12;;;;;;;;;;;;;;;21.45;39.84;101528.25;5063991;28;19921;-93
2023/09/17 02:58:38;;;;;;;;;;;;;;;21.41;40.02;101525.31;5064352;28;19982;-93
2023/09/17 03:01:14;;;;;;;;;;;;;;;21.39;39.86;101533.00;5067048;28;20052;-93
2023/09/17 03:03:40;;;;;;;;;;;;;;;21.34;39.85;101531.16;5067136;28;19924;-93
2023/09/17 03:06:05;;;;;;;;;;;;;;;21.35;39.81;101534.69;5061887;28;20011;-93
2023/09/17 03:08:31;;;;;;;;;;;;;;;21.34;39.74;101539.31;5068429;28;19999;-93
2023/09/17 03:10:57;;;;;;;;;;;;;;;21.32;39.65;101538.00;5064655;28;20387;-93
2023/09/17 03:13:22;;;;;;;;;;;;;;;21.29;39.79;101547.59;5060919;28;19940;-93
2023/09/17 03:15:47;;;;;;;;;;;;;;;21.26;39.86;101540.03;5061773;28;19948;-93
2023/09/17 03:18:13;;;;;;;;;;;;;;;21.24;40.19;101536.81;5058534;28;19913;-93
2023/09/17 03:20:39;;;;;;;;;;;;;;;21.21;40.12;101540.09;5065741;28;19920;-93
2023/09/17 03:23:04;;;;;;;;;;;;;;;21.18;40.19;101542.59;5070536;28;19913;-94
2023/09/17 03:25:31;;;;;;;;;;;;;;;21.13;40.02;101538.06;5060238;28;20004;-93
2023/09/17 03:27:56;;;;;;;;;;;;;;;21.09;40.07;101539.75;5054929;28;19924;-93
2023/09/17 03:30:22;;;;;;;;;;;;;;;21.07;40.17;101541.97;5062374;28;19920;-93
2023/09/17 03:32:47;;;;;;;;;;;;;;;21.05;40.02;101538.75;5070854;28;19924;-93
2023/09/17 03:35:12;;;;;;;;;;;;;;;21.03;40.19;101536.34;5068269;28;19995;-93
2023/09/17 03:37:38;;;;;;;;;;;;;;;21.01;40.17;101538.53;5063285;28;20006;-93
2023/09/17 03:40:08;;;;;;;;;;;;;;;20.98;40.39;101532.88;5062153;28;19919;-93
2023/09/17 03:42:36;;;;;;;;;;;;;;;20.95;40.42;101531.56;5060203;28;19912;-93
2023/09/17 03:45:05;;;;;;;;;;;;;;;20.91;40.20;101532.44;5064130;28;19917;-93
2023/09/17 03:47:31;;;;;;;;;;;;;;;20.89;40.43;101529.22;5060008;28;19912;-93
2023/09/17 03:49:57;;;;;;;;;;;;;;;20.86;40.44;101532.53;5057526;28;19921;-93
2023/09/17 03:52:22;;;;;;;;;;;;;;;20.83;40.35;101538.59;5059826;28;20326;-93
2023/09/17 03:54:48;;;;;;;;;;;;;;;20.81;40.34;101538.88;5062065;28;19925;-93
2023/09/17 03:57:13;;;;;;;;;;;;;;;20.77;40.43;101529.69;5069556;28;19919;-93
2023/09/17 03:59:38;;;;;;;;;;;;;;;20.74;40.24;101531.09;5069144;28;19964;-93
2023/09/17 04:02:04;;;;;;;;;;;;;;;20.73;40.54;101540.38;5069398;28;19916;-93
2023/09/17 04:04:30;;;;;;;;;;;;;;;20.70;40.49;101532.78;5065623;28;19925;-93
2023/09/17 04:06:56;;;;;;;;;;;;;;;20.67;40.72;101541.56;5063293;28;20002;-93
2023/09/17 04:09:21;;;;;;;;;;;;;;;20.63;40.76;101550.59;5060947;28;20594;-93
2023/09/17 04:11:47;;;;;;;;;;;;;;;20.60;40.26;101551.19;5069268;28;19968;-93
2023/09/17 04:14:12;;;;;;;;;;;;;;;20.59;40.19;101552.28;5071887;28;20016;-93
2023/09/17 04:16:37;;;;;;;;;;;;;;;20.57;40.25;101552.59;5074214;28;19932;-93
2023/09/17 04:19:04;;;;;;;;;;;;;;;20.57;40.27;101549.06;5069391;28;20047;-92
2023/09/17 04:21:30;;;;;;;;;;;;;;;20.54;40.20;101555.91;5070169;28;19928;-93
2023/09/17 04:23:55;;;;;;;;;;;;;;;20.51;40.50;101560.03;5068082;28;19916;-94
2023/09/17 04:26:24;;;;;;;;;;;;;;;20.46;40.62;101559.28;5063255;28;19955;-93
2023/09/17 04:28:49;;;;;;;;;;;;;;;20.41;40.77;101562.09;5067715;28;19927;-92
2023/09/17 04:31:15;;;;;;;;;;;;;;;20.41;40.59;101559.38;5059473;28;20283;-93
2023/09/17 04:33:40;;;;;;;;;;;;;;;20.41;40.77;101570.25;5061622;28;20501;-93
2023/09/17 04:36:05;;;;;;;;;;;;;;;20.40;40.93;101565.88;5071264;28;19938;-93
2023/09/17 04:38:31;;;;;;;;;;;;;;;20.40;40.50;101576.78;5065314;28;19920;-93
2023/09/17 04:40:56;;;;;;;;;;;;;;;20.39;40.67;101572.44;5067806;28;20545;-93
2023/09/17 04:43:23;;;;;;;;;;;;;;;20.39;40.60;101581.41;5065557;28;19966;-93
2023/09/17 04:45:48;;;;;;;;;;;;;;;20.40;40.80;101579.50;5069410;28;20288;-93
2023/09/17 04:48:16;;;;;;;;;;;;;;;20.36;40.74;101575.75;5062712;28;19917;-93
2023/09/17 04:50:43;;;;;;;;;;;;;;;20.35;40.84;101582.28;5071273;28;19920;-93
2023/09/17 04:53:10;;;;;;;;;;;;;;;20.34;41.06;101577.97;5069788;28;20028;-93
2023/09/17 04:55:35;;;;;;;;;;;;;;;20.33;40.85;101581.78;5063858;28;19924;-93
2023/09/17 04:58:01;;;;;;;;;;;;;;;20.33;40.96;101582.59;5066677;28;20007;-93
2023/09/17 05:00:26;;;;;;;;;;;;;;;20.33;41.11;101581.78;5066242;28;19982;-93
2023/09/17 05:02:51;;;;;;;;;;;;;;;20.34;40.95;101583.41;5066957;28;19924;-93
2023/09/17 05:05:20;;;;;;;;;;;;;;;20.37;40.90;101593.69;5066634;28;19917;-93
2023/09/17 05:07:47;;;;;;;;;;;;;;;20.38;41.03;101601.56;5069581;28;19917;-93
2023/09/17 05:10:13;;;;;;;;;;;;;;;20.38;40.95;101600.75;5063618;28;19925;-93
2023/09/17 05:12:39;;;;;;;;;;;;;;;20.39;40.92;101605.91;5065560;28;19917;-93
2023/09/17 05:15:04;;;;;;;;;;;;;;;20.39;41.18;101608.63;5065620;28;19916;-93
2023/09/17 05:17:30;;;;;;;;;;;;;;;20.41;41.09;101606.44;5063813;28;19921;-93
2023/09/17 05:19:55;;;;;;;;;;;;;;;20.42;41.00;101609.97;5067605;28;20528;-93
2023/09/17 05:22:20;;;;;;;;;;;;;;;20.43;41.14;101604.25;5069855;28;19913;-94
2023/09/17 05:24:46;;;;;;;;;;;;;;;20.43;41.22;101603.44;5060214;28;20016;-93
2023/09/17 05:27:11;;;;;;;;;;;;;;;20.45;41.36;101612.09;5069898;28;19939;-93
2023/09/17 05:29:37;;;;;;;;;;;;;;;20.47;41.24;101616.19;5065153;28;19925;-93
2023/09/17 05:32:02;;;;;;;;;;;;;;;20.52;41.35;101623.47;5065194;28;20553;-93
2023/09/17 05:34:28;;;;;;;;;;;;;;;20.58;41.12;101616.84;5068386;28;19916;-94
2023/09/17 05:36:54;;;;;;;;;;;;;;;20.67;41.57;101625.16;5067061;28;19929;-94
2023/09/17 05:39:19;;;;;;;;;;;;;;;20.75;41.33;101622.56;5062526;28;19921;-93
2023/09/17 05:41:45;;;;;;;;;;;;;;;20.84;41.20;101628.19;5061835;27;19951;-94
2023/09/17 05:44:10;;;;;;;;;;;;;;;20.92;41.50;101632.94;5064324;28;19917;-93
2023/09/17 05:46:36;;;;;;;;;;;;;;;20.99;41.69;101635.28;5056916;28;20308;-94
2023/09/17 05:49:01;;;;;;;;;;;;;;;21.07;41.57;101629.97;5064592;28;19916;-93
2023/09/17 05:51:26;;;;;;;;;;;;;;;21.17;41.74;101628.19;5060626;28;19921;-94
2023/09/17 05:53:52;;;;;;;;;;;;;;;21.25;41.80;101630.28;5064705;28;20380;-94
2023/09/17 05:56:17;;;;;;;;;;;;;;;21.35;41.82;101630.09;5063838;28;19928;-94
2023/09/17 05:58:43;;;;;;;;;;;;;;;21.43;41.73;101626.69;5064721;28;20331;-94
2023/09/17 06:01:08;;;;;;;;;;;;;;;21.53;42.09;101636.59;5062918;28;20354;-93
2023/09/17 06:03:33;;;;;;;;;;;;;;;21.64;41.97;101632.56;5062326;28;20319;-93
2023/09/17 06:05:59;;;;;;;;;;;;;;;21.75;42.32;101639.47;5060490;28;20043;-94
2023/09/17 06:08:28;;;;;;;;;;;;;;;21.82;42.21;101637.13;5060773;28;19917;-93
2023/09/17 06:10:54;;;;;;;;;;;;;;;21.91;41.98;101634.53;5064246;28;20335;-93
2023/09/17 06:13:19;;;;;;;;;;;;;;;22.02;42.38;101628.56;5058492;28;19917;-93
2023/09/17 06:15:45;;;;;;;;;;;;;;;22.12;42.33;101640.41;5063602;28;19917;-93
2023/09/17 06:18:11;;;;;;;;;;;;;;;22.22;42.32;101641.00;5059921;28;19932;-94
2023/09/17 06:20:36;;;;;;;;;;;;;;;22.30;42.29;101639.50;5064827;28;19923;-94
2023/09/17 06:23:02;;;;;;;;;;;;;;;22.40;42.40;101642.00;5065580;28;20006;-94
2023/09/17 06:25:27;;;;;;;;;;;;;;;22.51;42.37;101637.94;5062113;28;19924;-93
2023/09/17 06:27:53;;;;;;;;;;;;;;;22.60;42.54;101641.53;5058589;28;19925;-93
2023/09/17 06:30:19;;;;;;;;;;;;;;;22.72;42.67;101641.00;5058413;28;20392;-93
2023/09/17 06:32:45;;;;;;;;;;;;;;;22.82;42.57;101634.56;5065992;28;19928;-93
2023/09/17 06:35:10;;;;;;;;;;;;;;;22.92;42.07;101634.31;5056765;28;19924;-93
2023/09/17 06:37:36;;;;;;;;;;;;;;;23.04;42.69;101642.75;5065380;28;19924;-94
2023/09/17 06:40:01;;;;;;;;;;;;;;;23.17;42.54;101641.91;5066754;28;19921;-92
2023/09/17 06:42:26;;;;;;;;;;;;;;;23.27;42.49;101640.00;5070345;28;21658;-93
2023/09/17 06:44:52;;;;;;;;;;;;;;;23.39;42.22;101643.81;5060877;28;19924;-93
2023/09/17 06:47:17;;;;;;;;;;;;;;;23.49;42.36;101638.06;5056814;28;19916;-93
2023/09/17 06:49:42;;;;;;;;;;;;;;;23.62;42.51;101635.59;5061036;28;19928;-93
2023/09/17 06:52:08;;;;;;;;;;;;;;;23.75;42.37;101635.50;5062758;28;19980;-92
2023/09/17 06:54:33;;;;;;;;;;;;;;;23.91;42.39;101632.34;5055995;28;19947;-93
2023/09/17 06:57:01;;;;;;;;;;;;;;;24.07;42.46;101641.72;5063467;28;19982;-92
2023/09/17 06:59:27;;;;;;;;;;;;;;;24.20;42.32;101634.50;5055818;28;19975;-93
2023/09/17 07:01:53;;;;;;;;;;;;;;;24.34;42.60;101633.28;5058964;28;19952;-92
2023/09/17 07:04:18;;;;;;;;;;;;;;;24.49;42.44;101631.22;5057519;28;19921;-92
2023/09/17 07:06:44;;;;;;;;;;;;;;;24.64;41.92;101641.72;5058424;28;19916;-93
2023/09/17 07:09:09;;;;;;;;;;;;;;;24.78;42.68;101639.63;5061212;28;20307;-92
2023/09/17 07:11:34;;;;;;;;;;;;;;;24.94;42.24;101646.19;5062347;28;20019;-92
2023/09/17 07:14:04;;;;;;;;;;;;;;;25.07;42.08;101632.69;5066798;28;19916;-92
2023/09/17 07:16:29;;;;;;;;;;;;;;;25.20;42.05;101639.94;5060697;28;19927;-92
2023/09/17 07:18:55;;;;;;;;;;;;;;;25.36;42.10;101642.97;5063107;28;19916;-92
2023/09/17 07:21:20;;;;;;;;;;;;;;;25.49;41.87;101637.25;5055515;28;20004;-92
2023/09/17 07:23:50;;;;;;;;;;;;;;;25.65;41.69;101651.25;5065804;28;19923;-92
2023/09/17 07:26:16;;;;;;;;;;;;;;;25.82;41.70;101642.19;5056070;28;19999;-93
2023/09/17 07:28:41;;;;;;;;;;;;;;;25.99;41.44;101647.59;5060039;28;20685;-92
2023/09/17 07:31:10;;;;;;;;;;;;;;;26.14;41.43;101649.78;5071684;28;20192;-92
2023/09/17 07:33:35;;;;;;;;;;;;;;;26.31;41.48;101650.81;5063266;28;19916;-92
2023/09/17 07:36:00;;;;;;;;;;;;;;;26.46;41.29;101653.03;5062207;28;19924;-92
2023/09/17 07:38:26;;;;;;;;;;;;;;;26.61;41.19;101649.69;5059935;28;20609;-92
2023/09/17 07:40:51;;;;;;;;;;;;;;;26.77;41.00;101653.44;5060197;28;19917;-92
2023/09/17 07:43:16;;;;;;;;;;;;;;;26.92;40.71;101663.00;5064865;28;19917;-91
2023/09/17 07:45:42;;;;;;;;;;;;;;;27.06;40.82;101660.00;5065621;28;20029;-92
2023/09/17 07:48:07;;;;;;;;;;;;;;;27.19;40.61;101660.88;5062508;28;19917;-92
2023/09/17 07:50:33;;;;;;;;;;;;;;;27.34;40.57;101661.03;5058752;28;19921;-92
2023/09/17 07:52:59;;;;;;;;;;;;;;;27.48;40.33;101654.44;5062358;28;20445;-92
2023/09/17 07:55:25;;;;;;;;;;;;;;;27.58;40.34;101659.47;5064400;28;19967;-92
2023/09/17 07:57:51;;;;;;;;;;;;;;;27.71;40.17;101655.63;5064609;28;19916;-91
2023/09/17 08:00:16;;;;;;;;;;;;;;;27.85;40.01;101656.09;5064493;28;19923;-92
2023/09/17 08:02:45;;;;;;;;;;;;;;;27.99;39.85;101659.31;5059872;28;19916;-90
2023/09/17 08:05:13;;;;;;;;;;;;;;;28.09;39.77;101657.25;5064030;28;20005;-91
2023/09/17 08:07:42;;;;;;;;;;;;;;;28.20;39.72;101658.41;5062759;28;19924;-91
2023/09/17 08:10:08;;;;;;;;;;;;;;;28.35;39.65;101654.94;5065906;28;19920;-92
2023/09/17 08:12:33;;;;;;;;;;;;;;;28.48;39.55;101653.78;5062987;28;20420;-92
2023/09/17 08:14:58;;;;;;;;;;;;;;;28.64;39.30;101650.31;5066815;28;19928;-91
2023/09/17 08:17:24;;;;;;;;;;;;;;;28.75;38.81;101657.75;5062046;28;19917;-92
2023/09/17 08:19:49;;;;;;;;;;;;;;;28.84;38.78;101657.59;5062708;28;19935;-92
2023/09/17 08:22:15;;;;;;;;;;;;;;;28.94;38.83;101651.63;5065815;28;19913;-91
2023/09/17 08:24:40;;;;;;;;;;;;;;;29.08;38.95;101648.44;5060448;28;20335;-92
2023/09/17 08:27:06;;;;;;;;;;;;;;;29.30;38.46;101658.13;5057422;28;19921;-91
2023/09/17 08:29:33;;;;;;;;;;;;;;;29.50;38.18;101650.78;5061121;28;19982;-93
2023/09/17 08:31:59;;;;;;;;;;;;;;;29.68;38.13;101650.06;5058716;28;20319;-88
2023/09/17 08:34:25;;;;;;;;;;;;;;;29.85;38.02;101653.66;5051805;28;20531;-86
2023/09/17 08:36:50;;;;;;;;;;;;;;;30.00;37.89;101647.31;5052370;28;19920;-87
2023/09/17 08:39:15;;;;;;;;;;;;;;;30.12;37.81;101652.72;5049199;28;19948;-86
2023/09/17 08:41:41;;;;;;;;;;;;;;;30.24;37.31;101655.41;5048885;28;20007;-87
2023/09/17 08:44:07;;;;;;;;;;;;;;;30.30;37.22;101645.66;5052393;28;20028;-87
2023/09/17 08:46:32;;;;;;;;;;;;;;;30.38;37.51;101649.41;5043058;28;20350;-88
2023/09/17 08:48:58;;;;;;;;;;;;;;;30.44;37.39;101652.66;5049202;28;20009;-88
2023/09/17 08:51:25;;;;;;;;;;;;;;;30.51;37.19;101650.03;5049987;28;19928;-88
2023/09/17 08:53:57;;;;;;;;;;;;;;;30.55;37.38;101643.44;5044213;28;19935;-88
2023/09/17 08:56:23;;;;;;;;;;;;;;;30.60;37.30;101651.44;5044098;28;20313;-89
2023/09/17 08:59:09;;;;;;;;;;;;;;;30.65;36.99;101653.16;5041766;28;19921;-89
2023/09/17 09:01:37;;;;;;;;;;;;;;;30.72;36.62;101647.78;5042727;28;19967;-90
2023/09/17 09:04:05;;;;;;;;;;;;;;;30.78;36.81;101651.84;5051748;28;19920;-89
2023/09/17 09:06:30;;;;;;;;;;;;;;;30.88;36.67;101642.97;5056031;28;19924;-87
2023/09/17 09:08:57;;;;;;;;;;;;;;;31.00;36.25;101643.97;5046302;28;19921;-88
2023/09/17 09:11:22;;;;;;;;;;;;;;;31.12;36.26;101649.34;5048408;28;20133;-89
2023/09/17 09:13:50;;;;;;;;;;;;;;;31.23;35.98;101645.63;5042996;28;19921;-88
2023/09/17 09:16:16;;;;;;;;;;;;;;;31.33;35.90;101649.78;5053973;28;20006;-88
2023/09/17 09:18:41;;;;;;;;;;;;;;;31.44;35.94;101650.00;5047732;28;19920;-88
2023/09/17 09:21:08;;;;;;;;;;;;;;;31.56;35.84;101653.34;5049638;28;19962;-88
2023/09/17 09:23:33;;;;;;;;;;;;;;;31.67;35.95;101652.75;5046994;28;19990;-87
2023/09/17 09:25:59;;;;;;;;;;;;;;;31.74;35.70;101648.13;5047530;28;20372;-87
2023/09/17 09:28:24;;;;;;;;;;;;;;;31.83;35.70;101653.44;5048250;28;20454;-86
2023/09/17 09:30:50;;;;;;;;;;;;;;;31.94;35.46;101645.28;5041571;28;19986;-87
2023/09/17 09:33:20;;;;;;;;;;;;;;;32.05;35.21;101651.81;5043755;28;20258;-87
2023/09/17 09:35:46;;;;;;;;;;;;;;;32.17;35.41;101649.63;5046182;28;19920;-87
2023/09/17 09:38:11;;;;;;;;;;;;;;;32.28;35.17;101647.00;5043253;28;20407;-87
2023/09/17 09:40:38;;;;;;;;;;;;;;;32.39;35.10;101644.41;5049127;28;19918;-88
2023/09/17 09:43:03;;;;;;;;;;;;;;;32.49;34.80;101643.72;5047947;28;20388;-88
2023/09/17 09:45:28;;;;;;;;;;;;;;;32.56;34.54;101635.50;5043156;28;19932;-87
2023/09/17 09:47:54;;;;;;;;;;;;;;;32.64;35.02;101634.41;5046728;28;19987;-87
2023/09/17 09:50:23;;;;;;;;;;;;;;;32.79;34.80;101635.38;5042598;28;20650;-86
2023/09/17 09:52:48;;;;;;;;;;;;;;;32.90;34.62;101630.00;5049439;28;19920;-86
2023/09/17 09:55:14;;;;;;;;;;;;;;;32.94;34.77;101630.84;5046343;28;19975;-86
2023/09/17 09:57:41;;;;;;;;;;;;;;;32.98;34.49;101623.34;5045860;28;20000;-86
2023/09/17 10:00:10;;;;;;;;;;;;;;;32.99;34.90;101628.50;5050121;28;20415;-86
2023/09/17 10:02:37;;;;;;;;;;;;;;;33.07;34.71;101626.63;5040679;28;20389;-86
2023/09/17 10:05:04;;;;;;;;;;;;;;;33.17;34.40;101628.69;5049147;28;20014;-85
2023/09/17 10:07:29;;;;;;;;;;;;;;;33.26;34.46;101623.66;5064254;28;19944;-88
2023/09/17 10:09:57;;;;;;;;;;;;;;;33.37;34.53;101625.75;5046426;28;20420;-86
2023/09/17 10:12:22;;;;;;;;;;;;;;;33.46;34.02;101631.78;5044924;28;19947;-87
2023/09/17 10:14:48;;;;;;;;;;;;;;;33.57;34.06;101621.53;5049449;28;20381;-85
2023/09/17 10:17:16;;;;;;;;;;;;;;;33.68;33.65;101621.63;5047378;28;20694;-86
2023/09/17 10:19:42;;;;;;;;;;;;;;;33.77;34.12;101617.38;5046437;28;19928;-85
2023/09/17 10:22:09;;;;;;;;;;;;;;;33.82;33.49;101619.78;5049517;28;20420;-86
2023/09/17 10:24:36;;;;;;;;;;;;;;;33.87;33.49;101625.00;5050059;28;20282;-85
2023/09/17 10:27:03;;;;;;;;;;;;;;;33.90;33.49;101626.19;5049860;28;19920;-86
2023/09/17 10:29:30;;;;;;;;;;;;;;;33.97;33.54;101619.91;5048528;28;19933;-85
2023/09/17 10:31:57;;;;;;;;;;;;;;;34.07;33.17;101621.94;5044274;28;19920;-86
2023/09/17 10:34:23;;;;;;;;;;;;;;;34.14;33.15;101619.22;5048553;28;20015;-85
2023/09/17 10:36:50;;;;;;;;;;;;;;;34.21;33.17;101627.59;5053575;28;19916;-85
2023/09/17 10:39:16;;;;;;;;;;;;;;;34.24;32.87;101624.03;5048204;28;20009;-85
2023/09/17 10:41:44;;;;;;;;;;;;;;;34.19;32.92;101624.41;5052190;28;19920;-85
2023/09/17 10:44:13;;;;;;;;;;;;;;;34.25;33.20;101618.06;5045764;28;19931;-85
2023/09/17 10:46:42;;;;;;;;;;;;;;;34.36;32.62;101620.94;5048487;28;19920;-85
2023/09/17 10:49:09;;;;;;;;;;;;;;;34.45;32.35;101624.16;5051175;28;19924;-85
2023/09/17 10:51:34;;;;;;;;;;;;;;;34.52;32.59;101624.22;5047649;28;19994;-85
2023/09/17 10:54:00;;;;;;;;;;;;;;;34.61;32.55;101626.63;5049200;28;19928;-86
2023/09/17 10:56:25;;;;;;;;;;;;;;;34.73;32.63;101622.69;5048825;28;19921;-86
2023/09/17 10:58:51;;;;;;;;;;;;;;;34.90;32.43;101626.75;5048227;28;19920;-85
2023/09/17 11:01:26;;;;;;;;;;;;;;;35.08;32.05;101622.00;5046177;28;19920;-86
2023/09/17 11:03:52;;;;;;;;;;;;;;;35.20;31.71;101630.00;5050306;28;19946;-86
2023/09/17 11:06:23;;;;;;;;;;;;;;;35.33;31.76;101628.41;5048396;28;20503;-86
2023/09/17 11:08:51;;;;;;;;;;;;;;;35.51;31.70;101619.28;5061916;28;19920;-86
2023/09/17 11:11:17;;;;;;;;;;;;;;;35.63;31.31;101624.47;5053252;28;19981;-86
2023/09/17 11:13:43;;;;;;;;;;;;;;;35.75;31.25;101635.22;5051161;28;19916;-86
2023/09/17 11:16:09;;;;;;;;;;;;;;;35.80;31.14;101629.22;5049400;28;19921;-86
2023/09/17 11:18:34;;;;;;;;;;;;;;;35.85;31.04;101628.06;5046301;28;20034;-86
2023/09/17 11:21:04;;;;;;;;;;;;;;;35.87;31.08;101631.25;5043941;28;19925;-87
2023/09/17 11:23:43;;;;;;;;;;;;;;;35.83;31.18;101634.00;5046141;28;19916;-86
2023/09/17 11:26:08;;;;;;;;;;;;;;;35.85;31.09;101631.63;5052602;28;19921;-86
2023/09/17 11:28:38;;;;;;;;;;;;;;;35.88;30.65;101636.41;5044619;28;19917;-86
2023/09/17 11:31:06;;;;;;;;;;;;;;;35.94;30.91;101628.47;5047064;28;20221;-87
2023/09/17 11:33:32;;;;;;;;;;;;;;;36.01;30.67;101634.81;5047396;28;20093;-86
2023/09/17 11:35:58;;;;;;;;;;;;;;;36.08;30.63;101624.81;5050750;28;20459;-86
2023/09/17 11:38:24;;;;;;;;;;;;;;;36.13;30.56;101630.81;5046345;28;19934;-86
2023/09/17 11:41:09;;;;;;;;;;;;;;;36.21;30.54;101620.41;5044398;28;19928;-87
2023/09/17 11:43:36;;;;;;;;;;;;;;;36.30;30.08;101618.78;5051582;28;19924;-86
2023/09/17 11:46:04;;;;;;;;;;;;;;;36.45;30.37;101622.38;5048698;28;19924;-86
2023/09/17 11:48:30;;;;;;;;;;;;;;;36.59;29.91;101621.47;5046791;28;19990;-86
2023/09/17 11:51:15;;;;;;;;;;;;;;;36.66;29.99;101618.69;5046301;28;19925;-85
2023/09/17 11:53:52;;;;;;;;;;;;;;;36.70;29.92;101619.44;5046710;28;19956;-86
2023/09/17 11:56:19;;;;;;;;;;;;;;;36.68;29.38;101619.06;5057866;28;19920;-86
2023/09/17 11:58:45;;;;;;;;;;;;;;;36.66;29.58;101617.88;5048461;28;20412;-86
2023/09/17 12:01:10;;;;;;;;;;;;;;;36.73;29.75;101617.84;5046304;28;19925;-86
2023/09/17 12:03:36;;;;;;;;;;;;;;;36.86;29.75;101608.63;5052884;28;19923;-86
2023/09/17 12:06:01;;;;;;;;;;;;;;;37.03;29.26;101603.31;5046695;28;19921;-85
2023/09/17 12:08:27;;;;;;;;;;;;;;;37.06;29.26;101613.69;5044614;28;19917;-86
2023/09/17 12:11:11;;;;;;;;;;;;;;;37.13;29.26;101613.63;5045443;28;19924;-86
2023/09/17 12:13:37;;;;;;;;;;;;;;;37.26;28.80;101611.97;5043557;28;20025;-85
2023/09/17 12:16:02;;;;;;;;;;;;;;;37.36;28.98;101610.31;5051706;28;19925;-86
2023/09/17 12:18:28;;;;;;;;;;;;;;;37.41;29.15;101607.84;5054241;28;19980;-86
2023/09/17 12:21:02;;;;;;;;;;;;;;;37.45;28.76;101607.81;5054324;28;19967;-86
2023/09/17 12:24:06;;;;;;;;;;;;;;;37.44;28.56;101607.03;5049434;28;20001;-87
2023/09/17 12:29:42;;;;;;;;;;;;;;;37.35;28.54;101612.31;5054278;28;19921;-88
2023/09/17 12:32:08;;;;;;;;;;;;;;;37.38;28.37;101608.69;5052890;28;19966;-86
2023/09/17 12:34:33;;;;;;;;;;;;;;;37.38;28.37;101605.88;5048510;28;20288;-85
2023/09/17 12:36:59;;;;;;;;;;;;;;;37.37;28.19;101601.50;5051031;28;19931;-87